Time;durP1;ratioP1;P1;durP2;ratioP2;P2;SDS_P1;SDS_P2;PMS_P1;PMS_P2;Temp;Humidity;BMP_temperature;BMP_pressure;BME280_temperature;BME280_humidity;BME280_pressure;Samples;Min_cycle;Max_cycle;Signal;HPM_P1;HPM_P2
2024/01/16 00:00:12;;;;;;;5.43;2.97;;;0.60;69.10;;;;;;5017056;28;20335;-61
2024/01/16 00:02:37;;;;;;;6.63;2.80;;;0.60;69.20;;;;;;5019272;28;20033;-62
2024/01/16 00:05:03;;;;;;;4.80;2.53;;;0.60;69.20;;;;;;5022274;28;20515;-62
2024/01/16 00:07:29;;;;;;;3.95;2.40;;;0.50;69.10;;;;;;5022307;28;20116;-62
2024/01/16 00:09:54;;;;;;;3.15;2.28;;;0.50;69.30;;;;;;5024696;28;20088;-61
2024/01/16 00:12:20;;;;;;;4.18;2.63;;;0.50;69.50;;;;;;5015519;28;20034;-61
2024/01/16 00:14:46;;;;;;;3.92;2.55;;;0.50;70.30;;;;;;5019425;28;20199;-62
2024/01/16 00:17:11;;;;;;;4.57;2.58;;;0.50;69.40;;;;;;5026854;28;20584;-61
2024/01/16 00:19:37;;;;;;;4.32;2.50;;;0.50;69.40;;;;;;5016623;28;20042;-62
2024/01/16 00:22:04;;;;;;;4.50;2.58;;;0.50;69.40;;;;;;5021152;28;20515;-62
2024/01/16 00:24:30;;;;;;;4.85;2.53;;;0.40;69.40;;;;;;5016883;28;20049;-61
2024/01/16 00:26:56;;;;;;;6.80;2.83;;;0.50;69.40;;;;;;5027142;28;20045;-61
2024/01/16 00:29:21;;;;;;;4.22;2.40;;;0.50;70.30;;;;;;5017383;28;20045;-61
2024/01/16 00:31:47;;;;;;;3.55;2.50;;;0.50;69.40;;;;;;5022803;28;20087;-59
2024/01/16 00:34:12;;;;;;;3.40;2.35;;;0.40;69.30;;;;;;5026016;28;20128;-61
2024/01/16 00:36:38;;;;;;;6.65;2.72;;;0.40;69.30;;;;;;5021620;28;20417;-62
2024/01/16 00:39:03;;;;;;;4.75;2.78;;;0.40;69.10;;;;;;5013880;28;20045;-62
2024/01/16 00:41:29;;;;;;;3.83;2.50;;;0.40;69.10;;;;;;5019977;28;20034;-61
2024/01/16 00:43:55;;;;;;;5.85;3.00;;;0.40;68.90;;;;;;5014448;28;20037;-62
2024/01/16 00:46:20;;;;;;;5.57;2.60;;;0.30;68.70;;;;;;5023853;28;20040;-61
2024/01/16 00:48:46;;;;;;;4.55;2.88;;;0.20;68.80;;;;;;5020193;28;21153;-60
2024/01/16 00:51:12;;;;;;;4.47;2.75;;;0.20;68.70;;;;;;5024353;28;21815;-61
2024/01/16 00:53:44;;;;;;;5.80;3.17;;;0.20;68.90;;;;;;5029817;28;20136;-61
2024/01/16 00:56:10;;;;;;;4.75;2.45;;;0.10;68.80;;;;;;5025984;28;20026;-60
2024/01/16 00:58:36;;;;;;;8.85;2.80;;;0.10;68.90;;;;;;5031695;28;20052;-62
2024/01/16 01:01:02;;;;;;;4.63;2.90;;;0.00;69.30;;;;;;5024968;28;20044;-61
2024/01/16 01:03:27;;;;;;;4.35;2.63;;;0.00;69.50;;;;;;5024144;28;20038;-61
2024/01/16 01:05:53;;;;;;;3.15;2.50;;;0.00;69.60;;;;;;5027454;28;20021;-62
2024/01/16 01:08:18;;;;;;;6.57;2.70;;;0.00;69.60;;;;;;5023425;28;20518;-62
2024/01/16 01:10:44;;;;;;;4.57;2.47;;;0.00;69.60;;;;;;5030587;28;20033;-62
2024/01/16 01:13:10;;;;;;;6.53;2.70;;;-0.10;69.50;;;;;;5028945;28;20064;-60
2024/01/16 01:15:35;;;;;;;3.55;2.65;;;-0.10;69.60;;;;;;5028725;28;20061;-61
2024/01/16 01:18:01;;;;;;;6.20;2.80;;;-0.10;69.60;;;;;;5024759;28;20040;-59
2024/01/16 01:20:26;;;;;;;3.33;2.47;;;-0.10;69.60;;;;;;5029431;28;20029;-60
2024/01/16 01:22:52;;;;;;;4.05;2.58;;;-0.10;69.70;;;;;;5035331;28;20042;-62
2024/01/16 01:25:17;;;;;;;4.68;2.60;;;-0.20;69.70;;;;;;5033425;28;20494;-62
2024/01/16 01:27:43;;;;;;;4.13;2.70;;;-0.20;69.80;;;;;;5028974;28;20041;-61
2024/01/16 01:30:12;;;;;;;4.30;2.80;;;-0.20;69.80;;;;;;5025368;28;20037;-60
2024/01/16 01:32:38;;;;;;;3.88;2.30;;;-0.20;69.80;;;;;;5024843;28;20629;-62
2024/01/16 01:35:05;;;;;;;4.53;2.30;;;-0.20;69.80;;;;;;5027804;28;20366;-58
2024/01/16 01:37:31;;;;;;;3.10;2.28;;;-0.30;69.60;;;;;;5036179;28;20033;-61
2024/01/16 01:39:56;;;;;;;5.32;2.50;;;-0.30;69.70;;;;;;5029493;28;20032;-60
2024/01/16 01:42:22;;;;;;;4.00;2.40;;;-0.30;69.90;;;;;;5031818;28;20037;-62
2024/01/16 01:44:48;;;;;;;5.32;2.88;;;-0.30;69.80;;;;;;5025639;28;20043;-62
2024/01/16 01:47:14;;;;;;;4.15;2.75;;;-0.30;70.00;;;;;;5021345;28;20498;-60
2024/01/16 01:49:41;;;;;;;4.43;2.53;;;-0.40;69.80;;;;;;5021826;28;20414;-60
2024/01/16 01:52:07;;;;;;;8.88;3.00;;;-0.40;69.90;;;;;;5019452;28;20245;-60
2024/01/16 01:54:36;;;;;;;3.95;2.47;;;-0.40;69.80;;;;;;5028231;28;20049;-60
2024/01/16 01:57:02;;;;;;;5.47;2.75;;;-0.40;70.60;;;;;;5025137;28;20036;-61
2024/01/16 01:59:29;;;;;;;5.32;2.75;;;-0.50;69.80;;;;;;5023689;28;20080;-59
2024/01/16 02:01:55;;;;;;;4.13;2.58;;;-0.50;69.70;;;;;;5023879;28;20052;-62
2024/01/16 02:04:21;;;;;;;3.78;2.58;;;-0.50;69.70;;;;;;5028848;28;20527;-62
2024/01/16 02:06:47;;;;;;;6.97;2.97;;;-0.50;69.70;;;;;;5024278;28;20495;-60
2024/01/16 02:09:13;;;;;;;4.63;2.70;;;-0.60;69.80;;;;;;5021247;28;20046;-60
2024/01/16 02:11:42;;;;;;;5.15;2.95;;;-0.60;70.80;;;;;;5022151;28;20405;-60
2024/01/16 02:14:09;;;;;;;5.93;2.30;;;-0.60;70.00;;;;;;5026311;28;20496;-62
2024/01/16 02:16:39;;;;;;;4.35;2.72;;;-0.70;69.90;;;;;;5027001;28;20048;-62
2024/01/16 02:19:06;;;;;;;6.60;2.90;;;-0.70;69.80;;;;;;5023504;28;20047;-62
2024/01/16 02:21:41;;;;;;;5.55;2.80;;;-0.70;70.00;;;;;;5023937;28;20042;-62
2024/01/16 02:24:09;;;;;;;5.78;2.97;;;-0.70;69.90;;;;;;5017544;28;20039;-61
2024/01/16 02:26:35;;;;;;;5.68;2.83;;;-0.80;69.90;;;;;;5029741;28;20060;-62
2024/01/16 02:29:04;;;;;;;7.95;3.17;;;-0.80;69.90;;;;;;5020549;28;20103;-62
2024/01/16 02:31:33;;;;;;;5.93;3.03;;;-0.80;69.80;;;;;;5030163;28;20034;-61
2024/01/16 02:33:59;;;;;;;4.38;2.75;;;-0.90;69.80;;;;;;5027248;28;20041;-61
2024/01/16 02:36:26;;;;;;;5.53;2.97;;;-1.00;69.80;;;;;;5021822;28;20409;-61
2024/01/16 02:38:52;;;;;;;4.53;2.75;;;-1.00;70.00;;;;;;5020153;28;20034;-61
2024/01/16 02:41:19;;;;;;;5.10;2.97;;;-1.10;69.80;;;;;;5026178;28;20029;-62
2024/01/16 02:43:45;;;;;;;4.03;2.60;;;-1.10;70.00;;;;;;5019868;28;20036;-60
2024/01/16 02:46:10;;;;;;;4.95;2.45;;;-1.20;70.30;;;;;;5021305;28;20026;-61
2024/01/16 02:48:36;;;;;;;5.22;2.85;;;-1.30;70.30;;;;;;5026152;28;20069;-62
2024/01/16 02:51:03;;;;;;;4.00;2.78;;;-1.30;70.50;;;;;;5023655;28;20561;-60
2024/01/16 02:53:29;;;;;;;4.13;2.40;;;-1.30;70.60;;;;;;5029623;28;20042;-62
2024/01/16 02:55:58;;;;;;;4.95;2.53;;;-1.40;70.80;;;;;;5023570;28;20034;-60
2024/01/16 02:58:24;;;;;;;4.45;2.45;;;-1.40;70.90;;;;;;5025899;28;20045;-62
2024/01/16 03:00:50;;;;;;;4.72;2.58;;;-1.40;71.00;;;;;;5023694;28;20159;-62
2024/01/16 03:03:16;;;;;;;5.20;2.58;;;-1.30;71.20;;;;;;5021791;28;20521;-61
2024/01/16 03:05:42;;;;;;;4.45;2.50;;;-1.30;71.10;;;;;;5019234;28;20505;-62
2024/01/16 03:08:08;;;;;;;5.10;2.75;;;-1.30;71.00;;;;;;5022863;28;20043;-62
2024/01/16 03:10:33;;;;;;;4.22;2.78;;;-1.30;70.80;;;;;;5018614;28;20038;-60
2024/01/16 03:12:59;;;;;;;6.25;2.60;;;-1.30;70.80;;;;;;5028088;28;20032;-60
2024/01/16 03:15:24;;;;;;;4.15;2.65;;;-1.30;71.00;;;;;;5026774;28;20088;-60
2024/01/16 03:17:50;;;;;;;5.55;2.70;;;-1.30;70.90;;;;;;5021587;28;20401;-62
2024/01/16 03:20:17;;;;;;;5.38;2.90;;;-1.30;70.80;;;;;;5017893;28;20030;-62
2024/01/16 03:22:44;;;;;;;3.40;2.40;;;-1.30;70.80;;;;;;5021468;28;20068;-62
2024/01/16 03:25:12;;;;;;;3.22;2.38;;;-1.40;70.60;;;;;;5018793;28;20048;-60
2024/01/16 03:27:37;;;;;;;4.07;2.45;;;-1.40;70.70;;;;;;5025053;28;20037;-62
2024/01/16 03:30:04;;;;;;;4.88;2.17;;;-1.40;71.70;;;;;;5025901;28;20091;-61
2024/01/16 03:32:29;;;;;;;5.35;2.67;;;-1.50;71.00;;;;;;5025286;28;20030;-61
2024/01/16 03:34:55;;;;;;;5.78;2.72;;;-1.50;71.00;;;;;;5019610;28;20364;-61
2024/01/16 03:37:20;;;;;;;3.67;2.50;;;-1.50;71.00;;;;;;5022649;28;20037;-63
2024/01/16 03:39:46;;;;;;;4.53;2.35;;;-1.50;70.80;;;;;;5018897;28;20034;-61
2024/01/16 03:42:14;;;;;;;5.05;2.58;;;-1.60;70.70;;;;;;5020576;28;20509;-63
2024/01/16 03:44:40;;;;;;;4.32;2.42;;;-1.60;70.80;;;;;;5022642;28;20038;-62
2024/01/16 03:47:06;;;;;;;6.78;2.63;;;-1.70;70.80;;;;;;5019814;28;20055;-61
2024/01/16 03:49:32;;;;;;;4.60;2.40;;;-1.70;71.00;;;;;;5023317;28;20040;-62
2024/01/16 03:51:58;;;;;;;4.78;2.50;;;-1.70;71.10;;;;;;5017499;28;20120;-62
2024/01/16 03:54:23;;;;;;;4.43;2.40;;;-1.70;71.20;;;;;;5019143;28;20075;-61
2024/01/16 03:56:49;;;;;;;4.10;2.65;;;-1.70;71.20;;;;;;5024431;28;20452;-63
2024/01/16 03:59:14;;;;;;;4.18;2.60;;;-1.80;71.00;;;;;;5021703;28;20246;-62
2024/01/16 04:01:41;;;;;;;4.70;2.53;;;-1.80;71.00;;;;;;5025429;28;20057;-62
2024/01/16 04:04:07;;;;;;;5.75;2.45;;;-1.80;71.20;;;;;;5023188;28;20068;-62
2024/01/16 04:06:32;;;;;;;4.28;2.78;;;-1.90;71.30;;;;;;5028418;28;20033;-62
2024/01/16 04:08:58;;;;;;;4.45;2.33;;;-1.90;71.50;;;;;;5025189;28;20044;-61
2024/01/16 04:11:24;;;;;;;5.72;2.50;;;-1.90;71.50;;;;;;5021202;28;20113;-62
2024/01/16 04:13:49;;;;;;;5.68;2.75;;;-1.90;71.60;;;;;;5027274;28;20489;-60
2024/01/16 04:16:15;;;;;;;5.00;2.63;;;-1.90;71.70;;;;;;5021832;28;20022;-62
2024/01/16 04:18:43;;;;;;;5.88;2.97;;;-1.90;71.70;;;;;;5026115;28;20140;-62
2024/01/16 04:21:08;;;;;;;4.47;2.60;;;-1.90;71.60;;;;;;5024213;28;20053;-62
2024/01/16 04:23:34;;;;;;;3.90;2.55;;;-1.90;71.50;;;;;;5020767;28;20057;-62
2024/01/16 04:26:00;;;;;;;4.22;2.80;;;-1.90;71.50;;;;;;5019234;28;20041;-62
2024/01/16 04:28:26;;;;;;;5.30;2.65;;;-1.90;71.60;;;;;;5025542;28;20523;-62
2024/01/16 04:30:52;;;;;;;5.18;2.70;;;-1.90;71.70;;;;;;5020072;28;20037;-62
2024/01/16 04:33:17;;;;;;;3.97;2.60;;;-1.90;71.70;;;;;;5017028;28;20781;-61
2024/01/16 04:35:44;;;;;;;4.93;3.00;;;-1.90;71.70;;;;;;5019483;28;20049;-63
2024/01/16 04:38:10;;;;;;;7.90;2.60;;;-1.90;71.70;;;;;;5015717;28;20036;-62
2024/01/16 04:40:35;;;;;;;4.65;2.80;;;-1.90;71.50;;;;;;5018586;28;20404;-62
2024/01/16 04:43:01;;;;;;;6.20;2.67;;;-1.90;71.30;;;;;;5020903;28;20045;-62
2024/01/16 04:45:26;;;;;;;4.50;2.90;;;-2.00;71.30;;;;;;5028263;28;20066;-61
2024/01/16 04:47:52;;;;;;;4.47;2.90;;;-2.00;71.30;;;;;;5023734;28;20033;-61
2024/01/16 04:50:18;;;;;;;5.22;3.00;;;-2.10;71.30;;;;;;5020766;28;20049;-62
2024/01/16 04:52:44;;;;;;;7.70;3.05;;;-2.10;71.50;;;;;;5026108;28;20030;-62
2024/01/16 04:55:10;;;;;;;4.68;3.03;;;-2.10;71.50;;;;;;5022314;28;20167;-61
2024/01/16 04:57:35;;;;;;;4.22;2.80;;;-2.20;71.60;;;;;;5019185;28;20371;-62
2024/01/16 05:00:01;;;;;;;25.60;3.42;;;-2.20;71.80;;;;;;5021114;28;20065;-62
2024/01/16 05:02:31;;;;;;;9.65;3.30;;;-2.20;71.90;;;;;;5022542;28;20042;-62
2024/01/16 05:04:57;;;;;;;4.88;2.95;;;-2.20;72.00;;;;;;5021367;28;20099;-61
2024/01/16 05:07:24;;;;;;;6.63;3.05;;;-2.20;72.10;;;;;;5018775;28;20069;-62
2024/01/16 05:09:50;;;;;;;5.53;3.08;;;-2.20;72.10;;;;;;5021067;28;20084;-61
2024/01/16 05:12:16;;;;;;;6.18;3.25;;;-2.30;72.00;;;;;;5020827;28;20033;-61
2024/01/16 05:14:41;;;;;;;8.00;3.80;;;-2.30;72.10;;;;;;5026889;28;20508;-61
2024/01/16 05:17:08;;;;;;;8.32;3.80;;;-2.30;72.00;;;;;;5023940;28;20079;-61
2024/01/16 05:19:33;;;;;;;8.05;3.75;;;-2.30;72.10;;;;;;5016497;28;20037;-62
2024/01/16 05:21:59;;;;;;;10.20;4.50;;;-2.40;72.00;;;;;;5017733;28;20092;-62
2024/01/16 05:24:24;;;;;;;11.48;5.13;;;-2.40;72.20;;;;;;5016483;28;20069;-60
2024/01/16 05:26:50;;;;;;;10.57;4.47;;;-2.40;72.20;;;;;;5023470;28;20034;-60
2024/01/16 05:29:18;;;;;;;7.72;3.80;;;-2.40;72.20;;;;;;5019265;28;20036;-61
2024/01/16 05:31:44;;;;;;;5.20;3.15;;;-2.40;72.40;;;;;;5022170;28;20037;-62
2024/01/16 05:34:10;;;;;;;5.65;3.35;;;-2.40;72.60;;;;;;5017310;28;20060;-61
2024/01/16 05:36:35;;;;;;;6.60;3.53;;;-2.40;72.60;;;;;;5021449;28;20318;-61
2024/01/16 05:39:02;;;;;;;8.15;3.50;;;-2.40;72.70;;;;;;5027457;28;20114;-62
2024/01/16 05:41:31;;;;;;;7.00;3.63;;;-2.40;72.70;;;;;;5026284;28;20785;-61
2024/01/16 05:43:57;;;;;;;7.00;3.88;;;-2.40;72.80;;;;;;5027373;28;20508;-62
2024/01/16 05:46:23;;;;;;;8.98;3.47;;;-2.40;72.70;;;;;;5025212;28;20062;-61
2024/01/16 05:48:48;;;;;;;6.18;3.40;;;-2.40;72.70;;;;;;5026298;28;20408;-62
2024/01/16 05:51:14;;;;;;;5.82;3.28;;;-2.40;72.80;;;;;;5024690;28;20050;-62
2024/01/16 05:53:39;;;;;;;6.43;3.33;;;-2.40;72.90;;;;;;5023734;28;20107;-61
2024/01/16 05:56:05;;;;;;;5.78;3.60;;;-2.40;73.00;;;;;;5021562;28;20428;-62
2024/01/16 05:58:35;;;;;;;6.93;3.92;;;-2.40;73.10;;;;;;5029728;28;20037;-62
2024/01/16 06:01:01;;;;;;;6.63;4.10;;;-2.40;73.00;;;;;;5031099;28;20113;-62
2024/01/16 06:03:26;;;;;;;7.55;3.83;;;-2.40;72.90;;;;;;5022279;28;20171;-61
2024/01/16 06:05:52;;;;;;;7.13;4.05;;;-2.30;72.90;;;;;;5030562;28;20108;-63
2024/01/16 06:08:18;;;;;;;8.27;4.65;;;-2.30;73.70;;;;;;5020326;28;20037;-62
2024/01/16 06:10:45;;;;;;;12.88;6.55;;;-2.30;72.90;;;;;;5026666;28;20037;-63
2024/01/16 06:13:11;;;;;;;17.75;8.90;;;-2.30;72.80;;;;;;5024062;28;20570;-62
2024/01/16 06:15:36;;;;;;;12.30;6.95;;;-2.30;72.70;;;;;;5025230;28;20037;-63
2024/01/16 06:18:02;;;;;;;8.82;4.50;;;-2.40;72.70;;;;;;5025910;28;20037;-63
2024/01/16 06:20:29;;;;;;;6.65;3.78;;;-2.40;72.70;;;;;;5022819;28;20436;-59
2024/01/16 06:22:54;;;;;;;6.15;3.67;;;-2.40;72.70;;;;;;5030362;28;20034;-61
2024/01/16 06:25:20;;;;;;;8.68;3.97;;;-2.40;72.90;;;;;;5026933;28;20471;-63
2024/01/16 06:27:45;;;;;;;8.00;3.88;;;-2.40;72.90;;;;;;5025352;28;20068;-62
2024/01/16 06:30:11;;;;;;;12.00;5.10;;;-2.40;72.90;;;;;;5026466;28;20034;-61
2024/01/16 06:32:37;;;;;;;10.68;5.00;;;-2.40;72.90;;;;;;5025024;28;20517;-61
2024/01/16 06:35:02;;;;;;;11.98;4.95;;;-2.40;72.90;;;;;;5025873;28;20038;-61
2024/01/16 06:37:28;;;;;;;10.30;6.05;;;-2.40;72.90;;;;;;5028649;28;20103;-61
2024/01/16 06:39:54;;;;;;;12.30;5.90;;;-2.50;72.90;;;;;;5025426;28;20037;-62
2024/01/16 06:42:19;;;;;;;11.35;6.47;;;-2.50;72.80;;;;;;5029192;28;20030;-62
2024/01/16 06:44:45;;;;;;;11.48;5.90;;;-2.50;72.90;;;;;;5027465;28;20037;-61
2024/01/16 06:47:10;;;;;;;12.73;5.63;;;-2.60;72.90;;;;;;5028141;28;20037;-62
2024/01/16 06:49:36;;;;;;;11.38;6.00;;;-2.60;73.00;;;;;;5025724;28;20497;-60
2024/01/16 06:52:02;;;;;;;8.15;4.90;;;-2.60;72.90;;;;;;5024711;28;20596;-61
2024/01/16 06:54:28;;;;;;;9.55;4.88;;;-2.60;72.90;;;;;;5027254;28;20052;-62
2024/01/16 06:56:53;;;;;;;11.40;5.40;;;-2.70;72.90;;;;;;5024215;28;20104;-62
2024/01/16 06:59:19;;;;;;;12.93;6.07;;;-2.70;73.40;;;;;;5023018;28;20083;-61
2024/01/16 07:01:45;;;;;;;11.75;6.40;;;-2.70;73.20;;;;;;5027043;28;20302;-62
2024/01/16 07:04:11;;;;;;;13.15;6.88;;;-2.80;73.20;;;;;;5023153;28;20571;-60
2024/01/16 07:06:37;;;;;;;15.15;6.07;;;-2.80;73.30;;;;;;5025798;28;20104;-62
2024/01/16 07:09:05;;;;;;;15.38;7.63;;;-2.90;73.40;;;;;;5027662;28;20056;-62
2024/01/16 07:11:30;;;;;;;13.07;7.57;;;-2.90;73.40;;;;;;5022667;28;20114;-61
2024/01/16 07:13:57;;;;;;;15.23;8.00;;;-3.00;73.40;;;;;;5026710;28;20061;-61
2024/01/16 07:16:23;;;;;;;14.43;7.38;;;-3.00;74.10;;;;;;5019073;28;20041;-61
2024/01/16 07:18:48;;;;;;;14.68;7.55;;;-3.00;73.80;;;;;;5023607;28;20043;-61
2024/01/16 07:21:18;;;;;;;13.32;7.32;;;-3.10;73.90;;;;;;5020538;28;20172;-61
2024/01/16 07:23:44;;;;;;;16.52;7.97;;;-3.00;74.10;;;;;;5021394;28;20025;-62
2024/01/16 07:26:09;;;;;;;13.35;7.13;;;-3.00;74.20;;;;;;5025747;28;20036;-62
2024/01/16 07:28:35;;;;;;;14.95;7.13;;;-3.00;74.30;;;;;;5022715;28;20056;-60
2024/01/16 07:31:00;;;;;;;14.50;7.35;;;-3.00;74.30;;;;;;5024965;28;20041;-61
2024/01/16 07:33:26;;;;;;;12.13;6.32;;;-3.00;74.30;;;;;;5020329;28;20050;-62
2024/01/16 07:35:53;;;;;;;11.63;6.15;;;-2.90;74.50;;;;;;5017284;28;20033;-60
2024/01/16 07:38:18;;;;;;;12.23;6.30;;;-2.90;74.60;;;;;;5022935;28;20030;-62
2024/01/16 07:40:44;;;;;;;14.48;5.80;;;-2.90;74.60;;;;;;5019939;28;20039;-61
2024/01/16 07:43:10;;;;;;;9.75;5.32;;;-2.80;74.70;;;;;;5024397;28;20386;-61
2024/01/16 07:45:35;;;;;;;11.10;5.68;;;-2.80;74.60;;;;;;5028111;28;20501;-60
2024/01/16 07:48:01;;;;;;;12.88;6.80;;;-2.80;74.60;;;;;;5022843;28;20065;-60
2024/01/16 07:50:26;;;;;;;13.85;6.60;;;-2.80;75.50;;;;;;5028793;28;20408;-62
2024/01/16 07:52:52;;;;;;;13.95;7.07;;;-2.70;74.60;;;;;;5020909;28;20091;-60
2024/01/16 07:55:18;;;;;;;17.30;7.95;;;-2.70;74.60;;;;;;5024585;28;20043;-61
2024/01/16 07:57:44;;;;;;;16.08;7.50;;;-2.70;74.50;;;;;;5026806;28;20521;-61
2024/01/16 08:00:13;;;;;;;14.43;6.68;;;-2.60;74.60;;;;;;5018207;28;20119;-61
2024/01/16 08:02:39;;;;;;;15.77;7.32;;;-2.60;74.50;;;;;;5023521;28;20425;-62
2024/01/16 08:05:05;;;;;;;14.05;6.65;;;-2.60;74.60;;;;;;5022810;28;20029;-61
2024/01/16 08:07:31;;;;;;;16.13;7.05;;;-2.50;74.60;;;;;;5021811;28;20033;-62
2024/01/16 08:09:57;;;;;;;12.82;6.38;;;-2.50;74.60;;;;;;5028311;28;20029;-61
2024/01/16 08:12:22;;;;;;;17.25;7.70;;;-2.50;74.50;;;;;;5018214;28;20076;-61
2024/01/16 08:14:48;;;;;;;16.08;8.18;;;-2.40;74.60;;;;;;5025586;28;20520;-59
2024/01/16 08:17:14;;;;;;;16.75;8.38;;;-2.40;74.60;;;;;;5025011;28;20036;-60
2024/01/16 08:19:39;;;;;;;17.20;8.75;;;-2.40;74.60;;;;;;5022776;28;20037;-62
2024/01/16 08:22:05;;;;;;;13.90;7.63;;;-2.30;74.60;;;;;;5024664;28;20528;-61
2024/01/16 08:24:31;;;;;;;14.95;8.05;;;-2.30;74.50;;;;;;5020059;28;20030;-60
2024/01/16 08:26:57;;;;;;;11.93;6.57;;;-2.30;74.50;;;;;;5025957;28;20041;-61
2024/01/16 08:29:24;;;;;;;11.70;6.30;;;-2.30;74.60;;;;;;5023417;28;20079;-61
2024/01/16 08:31:51;;;;;;;11.60;5.47;;;-2.30;74.70;;;;;;5026345;28;20041;-62
2024/01/16 08:34:16;;;;;;;10.93;5.65;;;-2.30;74.80;;;;;;5023996;28;20409;-61
2024/01/16 08:36:42;;;;;;;11.18;5.72;;;-2.20;74.90;;;;;;5022289;28;20033;-61
2024/01/16 08:39:07;;;;;;;9.43;5.30;;;-2.20;74.80;;;;;;5018643;28;20489;-62
2024/01/16 08:41:33;;;;;;;10.45;5.90;;;-2.20;74.90;;;;;;5025001;28;20037;-61
2024/01/16 08:43:58;;;;;;;10.43;5.78;;;-2.20;74.90;;;;;;5018517;28;20044;-61
2024/01/16 08:46:24;;;;;;;9.98;5.82;;;-2.10;75.00;;;;;;5021913;28;20037;-59
2024/01/16 08:48:50;;;;;;;9.98;5.80;;;-2.10;75.00;;;;;;5021511;28;20037;-60
2024/01/16 08:51:15;;;;;;;23.60;11.07;;;-2.00;74.80;;;;;;5025584;28;20459;-60
2024/01/16 08:53:41;;;;;;;24.85;11.38;;;-2.00;74.80;;;;;;5025785;28;20052;-62
2024/01/16 08:56:08;;;;;;;16.80;8.68;;;-2.00;75.00;;;;;;5020826;28;20523;-59
2024/01/16 08:58:38;;;;;;;15.15;7.32;;;-2.00;75.00;;;;;;5024323;28;20520;-59
2024/01/16 09:01:07;;;;;;;10.52;6.50;;;-2.00;75.10;;;;;;5021177;28;20067;-61
2024/01/16 09:03:33;;;;;;;14.88;6.75;;;-2.00;75.90;;;;;;5017236;28;20641;-59
2024/01/16 09:05:59;;;;;;;14.60;6.75;;;-1.90;75.20;;;;;;5021693;28;20497;-61
2024/01/16 09:08:26;;;;;;;12.10;6.70;;;-1.90;75.20;;;;;;5020293;28;20038;-61
2024/01/16 09:10:52;;;;;;;14.73;7.32;;;-1.90;75.30;;;;;;5017569;28;20033;-60
2024/01/16 09:13:20;;;;;;;22.13;9.73;;;-1.90;75.40;;;;;;5025416;28;20033;-62
2024/01/16 09:15:46;;;;;;;20.02;8.95;;;-1.80;75.50;;;;;;5026617;28;20037;-62
2024/01/16 09:18:12;;;;;;;21.05;7.82;;;-1.80;75.50;;;;;;5027664;28;20044;-61
2024/01/16 09:20:38;;;;;;;17.13;8.02;;;-1.80;75.50;;;;;;5025223;28;20041;-61
2024/01/16 09:23:04;;;;;;;15.95;7.70;;;-1.70;75.50;;;;;;5026492;28;20129;-61
2024/01/16 09:25:29;;;;;;;17.95;7.50;;;-1.60;75.60;;;;;;5027154;28;20460;-60
2024/01/16 09:27:55;;;;;;;12.95;6.72;;;-1.50;75.60;;;;;;5029051;28;20100;-61
2024/01/16 09:30:22;;;;;;;16.23;7.75;;;-1.50;75.30;;;;;;5022503;28;20270;-62
2024/01/16 09:32:48;;;;;;;15.45;7.28;;;-1.40;75.20;;;;;;5024665;28;20024;-60
2024/01/16 09:35:14;;;;;;;13.90;7.43;;;-1.40;75.10;;;;;;5027844;28;20029;-59
2024/01/16 09:37:40;;;;;;;16.33;8.38;;;-1.30;75.00;;;;;;5026910;28;20034;-61
2024/01/16 09:40:07;;;;;;;20.27;8.38;;;-1.30;74.90;;;;;;5027141;28;20117;-60
2024/01/16 09:42:32;;;;;;;18.67;8.70;;;-1.30;74.80;;;;;;5027363;28;20615;-61
2024/01/16 09:45:00;;;;;;;16.75;8.43;;;-1.20;74.80;;;;;;5024296;28;20056;-59
2024/01/16 09:47:26;;;;;;;20.58;9.65;;;-1.20;74.80;;;;;;5026481;28;20037;-60
2024/01/16 09:49:54;;;;;;;19.73;9.20;;;-1.20;74.90;;;;;;5027511;28;20068;-59
2024/01/16 09:52:20;;;;;;;24.60;10.20;;;-1.20;74.80;;;;;;5022613;28;20034;-61
2024/01/16 09:54:45;;;;;;;16.98;7.90;;;-1.10;75.00;;;;;;5025756;28;20072;-60
2024/01/16 09:57:13;;;;;;;16.10;7.95;;;-1.00;75.10;;;;;;5024172;28;20133;-62
2024/01/16 09:59:40;;;;;;;15.88;7.78;;;-1.00;75.00;;;;;;5025341;28;20029;-60
2024/01/16 10:02:10;;;;;;;13.85;6.65;;;-1.00;75.00;;;;;;5029700;28;20163;-61
2024/01/16 10:04:36;;;;;;;13.52;7.53;;;-0.90;75.10;;;;;;5023678;28;20069;-60
2024/01/16 10:07:03;;;;;;;17.75;8.55;;;-0.80;75.20;;;;;;5028967;28;20033;-61
2024/01/16 10:09:29;;;;;;;12.55;7.18;;;-0.80;75.90;;;;;;5027452;28;20040;-60
2024/01/16 10:11:55;;;;;;;14.20;7.90;;;-0.70;74.90;;;;;;5027251;28;20026;-62
2024/01/16 10:14:21;;;;;;;19.17;8.75;;;-0.60;74.80;;;;;;5025732;28;20030;-62
2024/01/16 10:17:02;;;;;;;12.48;6.68;;;-0.60;74.80;;;;;;5027025;28;20091;-59
2024/01/16 10:19:29;;;;;;;8.90;5.63;;;-0.50;74.50;;;;;;5026994;28;20393;-60
2024/01/16 10:22:06;;;;;;;10.02;5.65;;;-0.50;74.60;;;;;;5032538;28;20037;-62
2024/01/16 10:24:35;;;;;;;9.10;5.43;;;-0.40;74.50;;;;;;5027198;28;20048;-62
2024/01/16 10:27:04;;;;;;;11.57;5.28;;;-0.40;74.50;;;;;;5028815;28;20413;-61
2024/01/16 10:29:31;;;;;;;8.07;4.80;;;-0.30;74.40;;;;;;5030167;28;20087;-61
2024/01/16 10:31:57;;;;;;;10.38;5.30;;;-0.20;74.50;;;;;;5025738;28;20539;-60
2024/01/16 10:34:23;;;;;;;7.68;4.80;;;-0.20;74.20;;;;;;5023660;28;20038;-62
2024/01/16 10:37:00;;;;;;;9.95;4.88;;;-0.10;73.90;;;;;;5027012;28;20086;-62
2024/01/16 10:39:25;;;;;;;9.38;4.57;;;0.00;73.80;;;;;;5024859;28;20517;-61
2024/01/16 10:41:55;;;;;;;10.82;4.57;;;0.00;73.60;;;;;;5025423;28;20065;-62
2024/01/16 10:44:21;;;;;;;9.55;4.75;;;0.00;73.50;;;;;;5022943;28;20591;-61
2024/01/16 10:46:46;;;;;;;9.68;4.78;;;0.10;73.70;;;;;;5030986;28;20025;-62
2024/01/16 10:49:12;;;;;;;8.30;4.60;;;0.10;73.60;;;;;;5022859;28;20191;-62
2024/01/16 10:51:42;;;;;;;22.42;5.78;;;0.10;73.50;;;;;;5019826;28;20037;-62
2024/01/16 10:54:13;;;;;;;8.27;4.65;;;0.20;73.60;;;;;;5029067;28;20026;-61
2024/01/16 10:56:47;;;;;;;11.90;4.90;;;0.20;73.40;;;;;;5024157;28;20099;-62
2024/01/16 10:59:25;;;;;;;12.10;5.03;;;0.30;73.60;;;;;;5022340;28;20040;-62
2024/01/16 11:01:56;;;;;;;13.60;5.05;;;0.40;73.10;;;;;;5028210;28;20034;-62
2024/01/16 11:04:22;;;;;;;15.20;4.57;;;0.40;73.10;;;;;;5027965;28;20029;-62
2024/01/16 11:06:51;;;;;;;11.32;5.00;;;0.40;73.30;;;;;;5028011;28;20041;-62
2024/01/16 11:09:17;;;;;;;6.90;4.60;;;0.50;73.40;;;;;;5026143;28;20397;-60
2024/01/16 11:11:46;;;;;;;25.48;5.57;;;0.50;73.40;;;;;;5024347;28;20062;-59
2024/01/16 11:14:14;;;;;;;9.43;4.88;;;0.60;73.60;;;;;;5030064;28;20041;-61
2024/01/16 11:16:42;;;;;;;11.82;4.50;;;0.60;73.70;;;;;;5021310;28;20022;-60
2024/01/16 11:19:09;;;;;;;9.07;5.05;;;0.70;73.80;;;;;;5019941;28;20025;-61
2024/01/16 11:21:36;;;;;;;13.73;6.00;;;0.80;73.80;;;;;;5021546;28;20037;-62
2024/01/16 11:24:02;;;;;;;11.05;6.05;;;0.80;73.80;;;;;;5018254;28;20040;-61
2024/01/16 11:26:33;;;;;;;12.27;6.43;;;0.90;73.90;;;;;;5020385;28;20038;-60
2024/01/16 11:29:00;;;;;;;11.65;6.35;;;1.00;74.00;;;;;;5018811;28;20049;-61
2024/01/16 11:31:35;;;;;;;10.50;5.93;;;1.10;74.00;;;;;;5020037;28;20034;-60
2024/01/16 11:34:02;;;;;;;8.82;5.53;;;1.10;73.70;;;;;;5026201;28;20408;-60
2024/01/16 11:36:57;;;;;;;17.95;6.55;;;1.20;73.60;;;;;;5016653;28;20038;-60
2024/01/16 11:39:26;;;;;;;10.88;5.53;;;1.30;73.30;;;;;;5019944;28;20034;-60
2024/01/16 11:41:52;;;;;;;11.15;5.55;;;1.40;73.50;;;;;;5019724;28;20033;-60
2024/01/16 11:44:40;;;;;;;10.05;5.85;;;1.40;73.40;;;;;;5021659;28;20034;-61
2024/01/16 11:47:05;;;;;;;9.88;5.45;;;1.50;72.70;;;;;;5025084;28;20044;-60
2024/01/16 11:49:31;;;;;;;10.70;6.15;;;1.50;72.90;;;;;;5024960;28;20034;-60
2024/01/16 11:51:58;;;;;;;9.52;5.63;;;1.60;73.00;;;;;;5022744;28;20112;-59
2024/01/16 11:54:23;;;;;;;10.30;5.97;;;1.60;72.90;;;;;;5021026;28;20049;-61
2024/01/16 11:57:12;;;;;;;9.85;5.75;;;1.60;72.70;;;;;;5023821;28;20033;-60
2024/01/16 11:59:55;;;;;;;10.60;5.93;;;1.70;72.60;;;;;;5024871;28;20041;-59
2024/01/16 12:02:33;;;;;;;10.35;5.95;;;1.70;72.70;;;;;;5027670;28;20037;-59
2024/01/16 12:05:03;;;;;;;10.15;5.90;;;1.70;72.90;;;;;;5021298;28;20033;-61
2024/01/16 12:07:29;;;;;;;10.70;6.00;;;1.80;72.80;;;;;;5027055;28;20037;-59
2024/01/16 12:10:00;;;;;;;10.18;4.97;;;1.80;72.70;;;;;;5025596;28;20045;-60
2024/01/16 12:12:26;;;;;;;8.18;4.85;;;1.90;72.60;;;;;;5026026;28;20121;-61
2024/01/16 12:14:53;;;;;;;10.65;5.05;;;1.90;72.40;;;;;;5030012;28;20617;-61
2024/01/16 12:17:20;;;;;;;9.40;4.80;;;1.90;72.20;;;;;;5024926;28;20045;-60
2024/01/16 12:19:46;;;;;;;8.77;4.78;;;1.90;72.10;;;;;;5026098;28;20037;-59
2024/01/16 12:22:16;;;;;;;9.15;4.63;;;1.90;71.90;;;;;;5026754;28;20041;-61
2024/01/16 12:24:42;;;;;;;11.68;4.93;;;1.90;71.90;;;;;;5024882;28;20401;-59
2024/01/16 12:27:08;;;;;;;8.18;4.53;;;1.90;72.70;;;;;;5019453;28;20524;-61
2024/01/16 12:29:34;;;;;;;8.98;4.60;;;2.00;71.90;;;;;;5022524;28;20120;-61
2024/01/16 12:32:22;;;;;;;8.45;4.75;;;2.00;71.90;;;;;;5025869;28;20026;-61
2024/01/16 12:34:48;;;;;;;8.85;4.35;;;2.00;71.30;;;;;;5020117;28;20112;-62
2024/01/16 12:37:14;;;;;;;10.65;5.60;;;2.00;71.70;;;;;;5024603;28;20033;-60
2024/01/16 12:39:41;;;;;;;10.27;5.22;;;2.10;71.70;;;;;;5024717;28;20045;-60
2024/01/16 12:42:09;;;;;;;11.43;4.85;;;2.10;71.60;;;;;;5025253;28;20049;-60